sensor_id;sensor_type;location;lat;lon;timestamp;P1;durP1;ratioP1;P2;durP2;ratioP2
52494;SDS011;38405;53.212;5.660;2023-06-22T00:00:48;19.88;;;16.02;;
52494;SDS011;38405;53.212;5.660;2023-06-22T00:03:14;16.55;;;13.20;;
52494;SDS011;38405;53.212;5.660;2023-06-22T00:05:40;16.13;;;11.77;;
52494;SDS011;38405;53.212;5.660;2023-06-22T00:08:06;13.82;;;10.52;;
52494;SDS011;38405;53.212;5.660;2023-06-22T00:10:32;11.98;;;10.52;;
52494;SDS011;38405;53.212;5.660;2023-06-22T00:12:57;16.15;;;13.38;;
52494;SDS011;38405;53.212;5.660;2023-06-22T00:15:23;45.13;;;11.57;;
52494;SDS011;38405;53.212;5.660;2023-06-22T00:17:49;241.73;;;16.45;;
52494;SDS011;38405;53.212;5.660;2023-06-22T00:20:16;156.38;;;12.32;;
52494;SDS011;38405;53.212;5.660;2023-06-22T00:22:43;37.90;;;9.43;;
52494;SDS011;38405;53.212;5.660;2023-06-22T00:25:09;119.15;;;12.38;;
52494;SDS011;38405;53.212;5.660;2023-06-22T00:27:35;13.82;;;11.57;;
52494;SDS011;38405;53.212;5.660;2023-06-22T00:30:01;17.75;;;14.95;;
52494;SDS011;38405;53.212;5.660;2023-06-22T00:32:28;116.18;;;20.52;;
52494;SDS011;38405;53.212;5.660;2023-06-22T00:34:53;54.13;;;19.75;;
52494;SDS011;38405;53.212;5.660;2023-06-22T00:37:19;30.60;;;20.52;;
52494;SDS011;38405;53.212;5.660;2023-06-22T00:39:47;41.72;;;21.67;;
52494;SDS011;38405;53.212;5.660;2023-06-22T00:42:13;29.98;;;22.23;;
52494;SDS011;38405;53.212;5.660;2023-06-22T00:44:39;34.67;;;22.38;;
52494;SDS011;38405;53.212;5.660;2023-06-22T00:47:05;49.22;;;20.45;;
52494;SDS011;38405;53.212;5.660;2023-06-22T00:49:31;48.13;;;20.45;;
52494;SDS011;38405;53.212;5.660;2023-06-22T00:51:57;22.83;;;19.35;;
52494;SDS011;38405;53.212;5.660;2023-06-22T00:54:23;27.38;;;19.92;;
52494;SDS011;38405;53.212;5.660;2023-06-22T00:56:53;30.20;;;21.70;;
52494;SDS011;38405;53.212;5.660;2023-06-22T00:59:21;24.50;;;20.55;;
52494;SDS011;38405;53.212;5.660;2023-06-22T01:01:47;26.92;;;22.20;;
52494;SDS011;38405;53.212;5.660;2023-06-22T01:04:13;26.75;;;22.35;;
52494;SDS011;38405;53.212;5.660;2023-06-22T01:06:41;28.95;;;22.58;;
52494;SDS011;38405;53.212;5.660;2023-06-22T01:09:20;29.58;;;22.55;;
52494;SDS011;38405;53.212;5.660;2023-06-22T01:11:57;201.15;;;23.45;;
52494;SDS011;38405;53.212;5.660;2023-06-22T01:14:49;43.65;;;16.50;;
52494;SDS011;38405;53.212;5.660;2023-06-22T01:17:20;37.95;;;17.85;;
52494;SDS011;38405;53.212;5.660;2023-06-22T01:19:49;48.05;;;19.02;;
52494;SDS011;38405;53.212;5.660;2023-06-22T01:22:22;82.80;;;19.40;;
52494;SDS011;38405;53.212;5.660;2023-06-22T01:27:53;131.40;;;21.23;;
52494;SDS011;38405;53.212;5.660;2023-06-22T01:30:25;201.23;;;21.83;;
52494;SDS011;38405;53.212;5.660;2023-06-22T01:32:54;152.43;;;19.08;;
52494;SDS011;38405;53.212;5.660;2023-06-22T01:35:21;74.93;;;16.85;;
52494;SDS011;38405;53.212;5.660;2023-06-22T01:37:48;137.57;;;19.75;;
52494;SDS011;38405;53.212;5.660;2023-06-22T01:40:14;152.13;;;20.75;;
52494;SDS011;38405;53.212;5.660;2023-06-22T01:42:40;71.88;;;19.65;;
52494;SDS011;38405;53.212;5.660;2023-06-22T01:45:08;86.28;;;19.33;;
52494;SDS011;38405;53.212;5.660;2023-06-22T01:47:36;157.93;;;25.50;;
52494;SDS011;38405;53.212;5.660;2023-06-22T01:50:02;148.52;;;20.67;;
52494;SDS011;38405;53.212;5.660;2023-06-22T01:52:28;212.23;;;24.95;;
52494;SDS011;38405;53.212;5.660;2023-06-22T01:54:54;148.73;;;22.23;;
52494;SDS011;38405;53.212;5.660;2023-06-22T01:57:20;196.68;;;24.70;;
52494;SDS011;38405;53.212;5.660;2023-06-22T01:59:59;146.85;;;23.92;;
52494;SDS011;38405;53.212;5.660;2023-06-22T02:02:37;170.63;;;23.48;;
52494;SDS011;38405;53.212;5.660;2023-06-22T02:05:09;153.35;;;20.85;;
52494;SDS011;38405;53.212;5.660;2023-06-22T02:07:42;102.30;;;20.75;;
52494;SDS011;38405;53.212;5.660;2023-06-22T02:10:13;108.82;;;18.95;;
52494;SDS011;38405;53.212;5.660;2023-06-22T02:12:41;133.27;;;18.63;;
52494;SDS011;38405;53.212;5.660;2023-06-22T02:15:08;129.07;;;18.52;;
52494;SDS011;38405;53.212;5.660;2023-06-22T02:17:35;144.80;;;20.45;;
52494;SDS011;38405;53.212;5.660;2023-06-22T02:20:02;94.55;;;21.17;;
52494;SDS011;38405;53.212;5.660;2023-06-22T02:22:33;221.07;;;25.48;;
52494;SDS011;38405;53.212;5.660;2023-06-22T02:24:59;153.77;;;22.42;;
52494;SDS011;38405;53.212;5.660;2023-06-22T02:27:25;190.02;;;21.60;;
52494;SDS011;38405;53.212;5.660;2023-06-22T02:29:50;98.00;;;19.17;;
52494;SDS011;38405;53.212;5.660;2023-06-22T02:32:16;46.30;;;16.33;;
52494;SDS011;38405;53.212;5.660;2023-06-22T02:34:43;39.00;;;16.48;;
52494;SDS011;38405;53.212;5.660;2023-06-22T02:37:12;56.63;;;17.08;;
52494;SDS011;38405;53.212;5.660;2023-06-22T02:39:41;58.47;;;18.70;;
52494;SDS011;38405;53.212;5.660;2023-06-22T02:42:07;61.53;;;17.90;;
52494;SDS011;38405;53.212;5.660;2023-06-22T02:44:33;36.75;;;19.00;;
52494;SDS011;38405;53.212;5.660;2023-06-22T02:46:58;36.75;;;19.25;;
52494;SDS011;38405;53.212;5.660;2023-06-22T02:49:24;38.65;;;20.15;;
52494;SDS011;38405;53.212;5.660;2023-06-22T02:51:50;47.00;;;19.63;;
52494;SDS011;38405;53.212;5.660;2023-06-22T02:54:15;42.47;;;21.33;;
52494;SDS011;38405;53.212;5.660;2023-06-22T02:56:42;41.03;;;21.38;;
52494;SDS011;38405;53.212;5.660;2023-06-22T02:59:11;67.93;;;20.83;;
52494;SDS011;38405;53.212;5.660;2023-06-22T03:01:37;43.33;;;23.40;;
52494;SDS011;38405;53.212;5.660;2023-06-22T03:04:05;48.90;;;20.95;;
52494;SDS011;38405;53.212;5.660;2023-06-22T03:06:32;35.05;;;20.17;;
52494;SDS011;38405;53.212;5.660;2023-06-22T03:09:02;35.72;;;21.48;;
52494;SDS011;38405;53.212;5.660;2023-06-22T03:11:30;36.85;;;21.63;;
52494;SDS011;38405;53.212;5.660;2023-06-22T03:13:56;47.15;;;21.00;;
52494;SDS011;38405;53.212;5.660;2023-06-22T03:16:22;34.35;;;21.02;;
52494;SDS011;38405;53.212;5.660;2023-06-22T03:18:47;25.95;;;19.98;;
52494;SDS011;38405;53.212;5.660;2023-06-22T03:21:13;32.92;;;21.05;;
52494;SDS011;38405;53.212;5.660;2023-06-22T03:23:40;32.30;;;21.35;;
52494;SDS011;38405;53.212;5.660;2023-06-22T03:26:08;37.10;;;19.92;;
52494;SDS011;38405;53.212;5.660;2023-06-22T03:28:34;28.30;;;21.30;;
52494;SDS011;38405;53.212;5.660;2023-06-22T03:31:00;29.80;;;21.73;;
52494;SDS011;38405;53.212;5.660;2023-06-22T03:33:25;28.75;;;21.35;;
52494;SDS011;38405;53.212;5.660;2023-06-22T03:35:51;26.35;;;19.92;;
52494;SDS011;38405;53.212;5.660;2023-06-22T03:38:17;23.85;;;19.88;;
52494;SDS011;38405;53.212;5.660;2023-06-22T03:40:43;26.02;;;20.50;;
52494;SDS011;38405;53.212;5.660;2023-06-22T03:43:08;27.83;;;20.25;;
52494;SDS011;38405;53.212;5.660;2023-06-22T03:45:34;24.80;;;21.00;;
52494;SDS011;38405;53.212;5.660;2023-06-22T03:48:00;25.98;;;19.92;;
52494;SDS011;38405;53.212;5.660;2023-06-22T03:50:26;26.33;;;20.48;;
52494;SDS011;38405;53.212;5.660;2023-06-22T03:52:55;24.52;;;18.65;;
52494;SDS011;38405;53.212;5.660;2023-06-22T03:55:21;67.47;;;21.45;;
52494;SDS011;38405;53.212;5.660;2023-06-22T03:57:46;29.60;;;21.55;;
52494;SDS011;38405;53.212;5.660;2023-06-22T04:00:12;29.15;;;21.13;;
52494;SDS011;38405;53.212;5.660;2023-06-22T04:02:40;147.95;;;23.50;;
52494;SDS011;38405;53.212;5.660;2023-06-22T04:05:06;424.75;;;28.65;;
52494;SDS011;38405;53.212;5.660;2023-06-22T04:07:33;340.73;;;24.95;;
52494;SDS011;38405;53.212;5.660;2023-06-22T04:09:59;262.80;;;20.73;;
52494;SDS011;38405;53.212;5.660;2023-06-22T04:12:26;393.52;;;26.25;;
52494;SDS011;38405;53.212;5.660;2023-06-22T04:14:51;381.73;;;24.02;;
52494;SDS011;38405;53.212;5.660;2023-06-22T04:17:17;384.20;;;24.15;;
52494;SDS011;38405;53.212;5.660;2023-06-22T04:19:44;312.60;;;23.67;;
52494;SDS011;38405;53.212;5.660;2023-06-22T04:22:09;300.10;;;23.58;;
52494;SDS011;38405;53.212;5.660;2023-06-22T04:24:35;277.73;;;20.88;;
52494;SDS011;38405;53.212;5.660;2023-06-22T04:27:01;213.05;;;25.50;;
52494;SDS011;38405;53.212;5.660;2023-06-22T04:29:28;147.15;;;22.52;;
52494;SDS011;38405;53.212;5.660;2023-06-22T04:31:58;98.07;;;20.80;;
52494;SDS011;38405;53.212;5.660;2023-06-22T04:34:28;54.20;;;20.77;;
52494;SDS011;38405;53.212;5.660;2023-06-22T04:36:54;68.57;;;20.30;;
52494;SDS011;38405;53.212;5.660;2023-06-22T04:39:20;105.60;;;17.52;;
52494;SDS011;38405;53.212;5.660;2023-06-22T04:41:46;53.92;;;16.98;;
52494;SDS011;38405;53.212;5.660;2023-06-22T04:44:17;68.35;;;16.05;;
52494;SDS011;38405;53.212;5.660;2023-06-22T04:49:25;54.05;;;12.85;;
52494;SDS011;38405;53.212;5.660;2023-06-22T04:51:57;82.95;;;16.85;;
52494;SDS011;38405;53.212;5.660;2023-06-22T04:54:27;74.90;;;16.17;;
52494;SDS011;38405;53.212;5.660;2023-06-22T04:56:53;26.60;;;16.23;;
52494;SDS011;38405;53.212;5.660;2023-06-22T04:59:26;22.45;;;16.92;;
52494;SDS011;38405;53.212;5.660;2023-06-22T05:01:53;72.88;;;16.88;;
52494;SDS011;38405;53.212;5.660;2023-06-22T05:04:20;77.85;;;17.83;;
52494;SDS011;38405;53.212;5.660;2023-06-22T05:06:47;67.88;;;17.10;;
52494;SDS011;38405;53.212;5.660;2023-06-22T05:09:13;41.88;;;16.40;;
52494;SDS011;38405;53.212;5.660;2023-06-22T05:11:38;30.83;;;16.30;;
52494;SDS011;38405;53.212;5.660;2023-06-22T05:14:04;21.48;;;15.88;;
52494;SDS011;38405;53.212;5.660;2023-06-22T05:16:29;18.45;;;15.27;;
52494;SDS011;38405;53.212;5.660;2023-06-22T05:18:55;18.60;;;16.70;;
52494;SDS011;38405;53.212;5.660;2023-06-22T05:21:25;20.60;;;16.63;;
52494;SDS011;38405;53.212;5.660;2023-06-22T05:23:52;22.10;;;16.15;;
52494;SDS011;38405;53.212;5.660;2023-06-22T05:26:19;22.08;;;17.05;;
52494;SDS011;38405;53.212;5.660;2023-06-22T05:28:45;23.40;;;16.95;;
52494;SDS011;38405;53.212;5.660;2023-06-22T05:31:15;27.58;;;17.98;;
52494;SDS011;38405;53.212;5.660;2023-06-22T05:33:42;21.42;;;18.83;;
52494;SDS011;38405;53.212;5.660;2023-06-22T05:36:08;25.05;;;18.70;;
52494;SDS011;38405;53.212;5.660;2023-06-22T05:38:35;23.92;;;19.05;;
52494;SDS011;38405;53.212;5.660;2023-06-22T05:41:01;21.48;;;18.75;;
52494;SDS011;38405;53.212;5.660;2023-06-22T05:43:27;25.27;;;19.25;;
52494;SDS011;38405;53.212;5.660;2023-06-22T05:45:53;25.40;;;20.23;;
52494;SDS011;38405;53.212;5.660;2023-06-22T05:48:18;24.30;;;18.95;;
52494;SDS011;38405;53.212;5.660;2023-06-22T05:50:44;23.27;;;19.55;;
52494;SDS011;38405;53.212;5.660;2023-06-22T05:53:10;22.38;;;19.92;;
52494;SDS011;38405;53.212;5.660;2023-06-22T05:55:36;22.65;;;19.02;;
52494;SDS011;38405;53.212;5.660;2023-06-22T05:58:01;24.65;;;19.55;;
52494;SDS011;38405;53.212;5.660;2023-06-22T06:00:30;25.40;;;20.35;;
52494;SDS011;38405;53.212;5.660;2023-06-22T06:02:56;23.08;;;19.20;;
52494;SDS011;38405;53.212;5.660;2023-06-22T06:05:22;29.85;;;21.08;;
52494;SDS011;38405;53.212;5.660;2023-06-22T06:07:50;26.05;;;20.52;;
52494;SDS011;38405;53.212;5.660;2023-06-22T06:10:16;25.83;;;20.58;;
52494;SDS011;38405;53.212;5.660;2023-06-22T06:12:41;26.83;;;21.13;;
52494;SDS011;38405;53.212;5.660;2023-06-22T06:15:07;27.52;;;19.83;;
52494;SDS011;38405;53.212;5.660;2023-06-22T06:17:33;26.42;;;18.80;;
52494;SDS011;38405;53.212;5.660;2023-06-22T06:19:59;22.38;;;17.13;;
52494;SDS011;38405;53.212;5.660;2023-06-22T06:22:25;20.30;;;16.52;;
52494;SDS011;38405;53.212;5.660;2023-06-22T06:24:51;19.55;;;16.40;;
52494;SDS011;38405;53.212;5.660;2023-06-22T06:27:16;17.77;;;15.52;;
52494;SDS011;38405;53.212;5.660;2023-06-22T06:29:45;17.05;;;14.55;;
52494;SDS011;38405;53.212;5.660;2023-06-22T06:32:13;17.30;;;14.98;;
52494;SDS011;38405;53.212;5.660;2023-06-22T06:34:38;16.00;;;13.20;;
52494;SDS011;38405;53.212;5.660;2023-06-22T06:37:05;15.15;;;13.20;;
52494;SDS011;38405;53.212;5.660;2023-06-22T06:39:31;16.88;;;12.80;;
52494;SDS011;38405;53.212;5.660;2023-06-22T06:41:56;17.63;;;11.68;;
52494;SDS011;38405;53.212;5.660;2023-06-22T06:44:22;12.60;;;11.32;;
52494;SDS011;38405;53.212;5.660;2023-06-22T06:46:48;14.38;;;10.90;;
52494;SDS011;38405;53.212;5.660;2023-06-22T06:49:13;16.35;;;11.00;;
52494;SDS011;38405;53.212;5.660;2023-06-22T06:51:39;12.30;;;9.75;;
52494;SDS011;38405;53.212;5.660;2023-06-22T06:54:05;10.50;;;9.18;;
52494;SDS011;38405;53.212;5.660;2023-06-22T06:56:30;11.45;;;9.98;;
52494;SDS011;38405;53.212;5.660;2023-06-22T06:58:58;10.57;;;9.48;;
52494;SDS011;38405;53.212;5.660;2023-06-22T07:01:24;9.45;;;8.35;;
52494;SDS011;38405;53.212;5.660;2023-06-22T07:03:50;11.05;;;8.88;;
52494;SDS011;38405;53.212;5.660;2023-06-22T07:06:15;13.05;;;9.18;;
52494;SDS011;38405;53.212;5.660;2023-06-22T07:08:41;11.10;;;8.38;;
52494;SDS011;38405;53.212;5.660;2023-06-22T07:11:07;10.85;;;7.93;;
52494;SDS011;38405;53.212;5.660;2023-06-22T07:13:39;15.15;;;8.25;;
52494;SDS011;38405;53.212;5.660;2023-06-22T07:16:04;10.15;;;8.60;;
52494;SDS011;38405;53.212;5.660;2023-06-22T07:18:30;9.32;;;8.38;;
52494;SDS011;38405;53.212;5.660;2023-06-22T07:20:56;9.45;;;7.95;;
52494;SDS011;38405;53.212;5.660;2023-06-22T07:23:21;9.98;;;8.68;;
52494;SDS011;38405;53.212;5.660;2023-06-22T07:25:47;8.73;;;7.82;;
52494;SDS011;38405;53.212;5.660;2023-06-22T07:28:12;10.90;;;8.43;;
52494;SDS011;38405;53.212;5.660;2023-06-22T07:30:38;9.88;;;7.90;;
52494;SDS011;38405;53.212;5.660;2023-06-22T07:33:04;11.50;;;8.40;;
52494;SDS011;38405;53.212;5.660;2023-06-22T07:35:33;10.18;;;8.85;;
52494;SDS011;38405;53.212;5.660;2023-06-22T07:37:58;9.73;;;8.52;;
52494;SDS011;38405;53.212;5.660;2023-06-22T07:40:24;12.32;;;9.02;;
52494;SDS011;38405;53.212;5.660;2023-06-22T07:42:51;10.32;;;8.63;;
52494;SDS011;38405;53.212;5.660;2023-06-22T07:45:17;11.48;;;8.25;;
52494;SDS011;38405;53.212;5.660;2023-06-22T07:47:43;17.08;;;9.40;;
52494;SDS011;38405;53.212;5.660;2023-06-22T07:50:09;9.70;;;8.68;;
52494;SDS011;38405;53.212;5.660;2023-06-22T07:52:35;8.52;;;7.50;;
52494;SDS011;38405;53.212;5.660;2023-06-22T07:55:01;7.07;;;6.40;;
52494;SDS011;38405;53.212;5.660;2023-06-22T07:57:27;8.88;;;7.07;;
52494;SDS011;38405;53.212;5.660;2023-06-22T07:59:58;8.43;;;7.63;;
52494;SDS011;38405;53.212;5.660;2023-06-22T08:02:39;7.93;;;6.63;;
52494;SDS011;38405;53.212;5.660;2023-06-22T08:05:06;9.00;;;7.57;;
52494;SDS011;38405;53.212;5.660;2023-06-22T08:07:33;8.57;;;7.07;;
52494;SDS011;38405;53.212;5.660;2023-06-22T08:10:02;8.85;;;7.38;;
52494;SDS011;38405;53.212;5.660;2023-06-22T08:12:29;7.65;;;6.90;;
52494;SDS011;38405;53.212;5.660;2023-06-22T08:14:54;12.50;;;8.13;;
52494;SDS011;38405;53.212;5.660;2023-06-22T08:17:21;8.27;;;7.38;;
52494;SDS011;38405;53.212;5.660;2023-06-22T08:19:48;10.80;;;7.85;;
52494;SDS011;38405;53.212;5.660;2023-06-22T08:22:14;9.23;;;8.30;;
52494;SDS011;38405;53.212;5.660;2023-06-22T08:24:40;10.18;;;7.75;;
52494;SDS011;38405;53.212;5.660;2023-06-22T08:27:09;10.45;;;7.80;;
52494;SDS011;38405;53.212;5.660;2023-06-22T08:29:40;7.65;;;6.70;;
52494;SDS011;38405;53.212;5.660;2023-06-22T08:32:10;7.82;;;7.03;;
52494;SDS011;38405;53.212;5.660;2023-06-22T08:34:36;8.82;;;7.07;;
52494;SDS011;38405;53.212;5.660;2023-06-22T08:37:02;7.88;;;7.00;;
52494;SDS011;38405;53.212;5.660;2023-06-22T08:39:31;9.23;;;7.22;;
52494;SDS011;38405;53.212;5.660;2023-06-22T08:41:57;8.93;;;7.30;;
52494;SDS011;38405;53.212;5.660;2023-06-22T08:44:23;8.38;;;6.53;;
52494;SDS011;38405;53.212;5.660;2023-06-22T08:46:48;9.43;;;7.50;;
52494;SDS011;38405;53.212;5.660;2023-06-22T08:49:14;8.50;;;7.30;;
52494;SDS011;38405;53.212;5.660;2023-06-22T08:51:40;11.48;;;7.22;;
52494;SDS011;38405;53.212;5.660;2023-06-22T08:54:06;15.55;;;7.28;;
52494;SDS011;38405;53.212;5.660;2023-06-22T08:56:31;10.30;;;6.68;;
52494;SDS011;38405;53.212;5.660;2023-06-22T08:58:57;9.65;;;7.10;;
52494;SDS011;38405;53.212;5.660;2023-06-22T09:01:23;9.32;;;6.93;;
52494;SDS011;38405;53.212;5.660;2023-06-22T09:03:49;7.28;;;6.55;;
52494;SDS011;38405;53.212;5.660;2023-06-22T09:06:22;8.32;;;7.03;;
52494;SDS011;38405;53.212;5.660;2023-06-22T09:08:48;10.20;;;7.72;;
52494;SDS011;38405;53.212;5.660;2023-06-22T09:11:14;7.97;;;6.65;;
52494;SDS011;38405;53.212;5.660;2023-06-22T09:13:39;8.32;;;6.35;;
52494;SDS011;38405;53.212;5.660;2023-06-22T09:16:05;8.07;;;5.70;;
52494;SDS011;38405;53.212;5.660;2023-06-22T09:18:31;7.22;;;6.43;;
52494;SDS011;38405;53.212;5.660;2023-06-22T09:20:58;8.05;;;5.97;;
52494;SDS011;38405;53.212;5.660;2023-06-22T09:23:24;5.07;;;4.68;;
52494;SDS011;38405;53.212;5.660;2023-06-22T09:25:49;8.48;;;5.38;;
52494;SDS011;38405;53.212;5.660;2023-06-22T09:28:15;5.47;;;4.90;;
52494;SDS011;38405;53.212;5.660;2023-06-22T09:30:42;6.38;;;5.70;;
52494;SDS011;38405;53.212;5.660;2023-06-22T09:33:09;11.45;;;5.40;;
52494;SDS011;38405;53.212;5.660;2023-06-22T09:35:34;7.15;;;6.07;;
52494;SDS011;38405;53.212;5.660;2023-06-22T09:38:00;6.38;;;5.03;;
52494;SDS011;38405;53.212;5.660;2023-06-22T09:40:26;5.05;;;4.40;;
52494;SDS011;38405;53.212;5.660;2023-06-22T09:42:51;4.72;;;4.07;;
52494;SDS011;38405;53.212;5.660;2023-06-22T09:45:17;5.70;;;4.72;;
52494;SDS011;38405;53.212;5.660;2023-06-22T09:47:43;5.45;;;4.45;;
52494;SDS011;38405;53.212;5.660;2023-06-22T09:50:08;6.45;;;4.80;;
52494;SDS011;38405;53.212;5.660;2023-06-22T09:52:34;6.22;;;4.82;;
52494;SDS011;38405;53.212;5.660;2023-06-22T09:55:00;4.93;;;4.43;;
52494;SDS011;38405;53.212;5.660;2023-06-22T09:57:26;6.30;;;4.32;;
52494;SDS011;38405;53.212;5.660;2023-06-22T09:59:51;8.00;;;4.45;;
52494;SDS011;38405;53.212;5.660;2023-06-22T10:02:17;4.82;;;4.10;;
52494;SDS011;38405;53.212;5.660;2023-06-22T10:04:43;6.18;;;4.25;;
52494;SDS011;38405;53.212;5.660;2023-06-22T10:07:08;6.60;;;3.92;;
52494;SDS011;38405;53.212;5.660;2023-06-22T10:09:34;7.65;;;5.03;;
52494;SDS011;38405;53.212;5.660;2023-06-22T10:12:00;5.47;;;3.80;;
52494;SDS011;38405;53.212;5.660;2023-06-22T10:14:25;5.18;;;4.05;;
52494;SDS011;38405;53.212;5.660;2023-06-22T10:16:52;5.82;;;5.10;;
52494;SDS011;38405;53.212;5.660;2023-06-22T10:19:18;5.32;;;4.13;;
52494;SDS011;38405;53.212;5.660;2023-06-22T10:21:44;5.60;;;4.05;;
52494;SDS011;38405;53.212;5.660;2023-06-22T10:24:10;10.52;;;4.50;;
52494;SDS011;38405;53.212;5.660;2023-06-22T10:26:35;6.82;;;4.65;;
52494;SDS011;38405;53.212;5.660;2023-06-22T10:29:02;5.78;;;4.70;;
52494;SDS011;38405;53.212;5.660;2023-06-22T10:31:28;6.40;;;5.00;;
52494;SDS011;38405;53.212;5.660;2023-06-22T10:33:54;6.40;;;4.88;;
52494;SDS011;38405;53.212;5.660;2023-06-22T10:36:23;5.32;;;4.50;;
52494;SDS011;38405;53.212;5.660;2023-06-22T10:38:49;6.32;;;4.75;;
52494;SDS011;38405;53.212;5.660;2023-06-22T10:41:14;8.32;;;5.35;;
52494;SDS011;38405;53.212;5.660;2023-06-22T10:43:41;5.65;;;4.50;;
52494;SDS011;38405;53.212;5.660;2023-06-22T10:46:06;5.00;;;4.50;;
52494;SDS011;38405;53.212;5.660;2023-06-22T10:48:32;5.05;;;4.30;;
52494;SDS011;38405;53.212;5.660;2023-06-22T10:50:58;4.22;;;3.83;;
52494;SDS011;38405;53.212;5.660;2023-06-22T10:53:24;4.10;;;3.72;;
52494;SDS011;38405;53.212;5.660;2023-06-22T10:55:50;4.50;;;3.53;;
52494;SDS011;38405;53.212;5.660;2023-06-22T10:58:17;8.40;;;3.50;;
52494;SDS011;38405;53.212;5.660;2023-06-22T11:00:44;4.20;;;3.47;;
52494;SDS011;38405;53.212;5.660;2023-06-22T11:03:09;6.55;;;3.70;;
52494;SDS011;38405;53.212;5.660;2023-06-22T11:05:35;4.15;;;3.45;;
52494;SDS011;38405;53.212;5.660;2023-06-22T11:08:01;7.60;;;4.13;;
52494;SDS011;38405;53.212;5.660;2023-06-22T11:10:26;4.15;;;3.58;;
52494;SDS011;38405;53.212;5.660;2023-06-22T11:12:52;4.97;;;3.75;;
52494;SDS011;38405;53.212;5.660;2023-06-22T11:15:18;7.10;;;4.68;;
52494;SDS011;38405;53.212;5.660;2023-06-22T11:17:44;5.60;;;4.38;;
52494;SDS011;38405;53.212;5.660;2023-06-22T11:20:10;6.20;;;4.28;;
52494;SDS011;38405;53.212;5.660;2023-06-22T11:22:37;5.72;;;4.85;;
52494;SDS011;38405;53.212;5.660;2023-06-22T11:25:04;5.80;;;4.68;;
52494;SDS011;38405;53.212;5.660;2023-06-22T11:27:30;5.28;;;4.30;;
52494;SDS011;38405;53.212;5.660;2023-06-22T11:29:56;8.57;;;4.50;;
52494;SDS011;38405;53.212;5.660;2023-06-22T11:32:22;7.03;;;4.55;;
52494;SDS011;38405;53.212;5.660;2023-06-22T11:34:48;4.80;;;4.40;;
52494;SDS011;38405;53.212;5.660;2023-06-22T11:37:14;5.97;;;4.03;;
52494;SDS011;38405;53.212;5.660;2023-06-22T11:39:40;5.40;;;4.05;;
52494;SDS011;38405;53.212;5.660;2023-06-22T11:42:09;3.97;;;3.67;;
52494;SDS011;38405;53.212;5.660;2023-06-22T11:44:35;5.38;;;4.00;;
52494;SDS011;38405;53.212;5.660;2023-06-22T11:47:01;12.80;;;3.90;;
52494;SDS011;38405;53.212;5.660;2023-06-22T11:49:29;4.50;;;4.10;;
52494;SDS011;38405;53.212;5.660;2023-06-22T11:51:57;5.15;;;4.40;;
52494;SDS011;38405;53.212;5.660;2023-06-22T11:54:23;7.75;;;4.63;;
52494;SDS011;38405;53.212;5.660;2023-06-22T11:56:48;7.28;;;4.45;;
52494;SDS011;38405;53.212;5.660;2023-06-22T11:59:14;5.43;;;4.70;;
52494;SDS011;38405;53.212;5.660;2023-06-22T12:01:40;7.05;;;4.53;;
52494;SDS011;38405;53.212;5.660;2023-06-22T12:04:05;5.70;;;4.07;;
52494;SDS011;38405;53.212;5.660;2023-06-22T12:06:32;3.90;;;3.55;;
52494;SDS011;38405;53.212;5.660;2023-06-22T12:08:58;3.85;;;3.40;;
52494;SDS011;38405;53.212;5.660;2023-06-22T12:11:24;4.40;;;3.35;;
52494;SDS011;38405;53.212;5.660;2023-06-22T12:13:49;7.40;;;3.30;;
52494;SDS011;38405;53.212;5.660;2023-06-22T12:16:15;3.80;;;3.30;;
52494;SDS011;38405;53.212;5.660;2023-06-22T12:18:41;4.28;;;3.63;;
52494;SDS011;38405;53.212;5.660;2023-06-22T12:21:07;4.53;;;3.42;;
52494;SDS011;38405;53.212;5.660;2023-06-22T12:23:32;4.63;;;3.67;;
52494;SDS011;38405;53.212;5.660;2023-06-22T12:25:58;4.65;;;3.83;;
52494;SDS011;38405;53.212;5.660;2023-06-22T12:28:25;3.65;;;3.30;;
52494;SDS011;38405;53.212;5.660;2023-06-22T12:30:50;5.10;;;3.20;;
52494;SDS011;38405;53.212;5.660;2023-06-22T12:33:16;4.50;;;3.53;;
52494;SDS011;38405;53.212;5.660;2023-06-22T12:35:43;4.22;;;3.78;;
52494;SDS011;38405;53.212;5.660;2023-06-22T12:38:10;4.13;;;3.72;;
52494;SDS011;38405;53.212;5.660;2023-06-22T12:40:36;3.90;;;3.10;;
52494;SDS011;38405;53.212;5.660;2023-06-22T12:43:02;5.63;;;4.10;;
52494;SDS011;38405;53.212;5.660;2023-06-22T12:45:27;3.55;;;3.25;;
52494;SDS011;38405;53.212;5.660;2023-06-22T12:47:56;4.20;;;2.80;;
52494;SDS011;38405;53.212;5.660;2023-06-22T12:50:22;2.90;;;2.60;;
52494;SDS011;38405;53.212;5.660;2023-06-22T12:52:48;4.32;;;2.75;;
52494;SDS011;38405;53.212;5.660;2023-06-22T12:55:13;2.95;;;2.55;;
52494;SDS011;38405;53.212;5.660;2023-06-22T12:57:39;2.78;;;2.45;;
52494;SDS011;38405;53.212;5.660;2023-06-22T13:00:05;2.88;;;2.08;;
52494;SDS011;38405;53.212;5.660;2023-06-22T13:02:33;2.55;;;2.15;;
52494;SDS011;38405;53.212;5.660;2023-06-22T13:04:58;3.47;;;2.10;;
52494;SDS011;38405;53.212;5.660;2023-06-22T13:07:24;1.95;;;1.80;;
52494;SDS011;38405;53.212;5.660;2023-06-22T13:09:50;3.28;;;1.80;;
52494;SDS011;38405;53.212;5.660;2023-06-22T13:12:16;4.07;;;1.98;;
52494;SDS011;38405;53.212;5.660;2023-06-22T13:14:42;2.22;;;1.90;;
52494;SDS011;38405;53.212;5.660;2023-06-22T13:17:08;1.70;;;1.58;;
52494;SDS011;38405;53.212;5.660;2023-06-22T13:19:34;2.70;;;1.73;;
52494;SDS011;38405;53.212;5.660;2023-06-22T13:22:00;3.63;;;1.65;;
52494;SDS011;38405;53.212;5.660;2023-06-22T13:24:27;3.83;;;1.48;;
52494;SDS011;38405;53.212;5.660;2023-06-22T13:26:53;1.95;;;1.52;;
52494;SDS011;38405;53.212;5.660;2023-06-22T13:29:20;1.73;;;1.35;;
52494;SDS011;38405;53.212;5.660;2023-06-22T13:31:45;5.43;;;1.73;;
52494;SDS011;38405;53.212;5.660;2023-06-22T13:34:11;1.75;;;1.55;;
52494;SDS011;38405;53.212;5.660;2023-06-22T13:36:37;3.50;;;1.38;;
52494;SDS011;38405;53.212;5.660;2023-06-22T13:39:03;3.33;;;1.40;;
52494;SDS011;38405;53.212;5.660;2023-06-22T13:41:29;2.95;;;1.88;;
52494;SDS011;38405;53.212;5.660;2023-06-22T13:43:55;2.17;;;1.40;;
52494;SDS011;38405;53.212;5.660;2023-06-22T13:46:20;1.67;;;1.40;;
52494;SDS011;38405;53.212;5.660;2023-06-22T13:48:46;2.40;;;1.50;;
52494;SDS011;38405;53.212;5.660;2023-06-22T13:51:12;1.92;;;1.30;;
52494;SDS011;38405;53.212;5.660;2023-06-22T13:53:37;2.50;;;1.20;;
52494;SDS011;38405;53.212;5.660;2023-06-22T13:56:03;3.03;;;1.40;;
52494;SDS011;38405;53.212;5.660;2023-06-22T13:58:29;1.85;;;1.15;;
52494;SDS011;38405;53.212;5.660;2023-06-22T14:00:54;2.22;;;1.05;;
52494;SDS011;38405;53.212;5.660;2023-06-22T14:03:20;1.20;;;1.10;;
52494;SDS011;38405;53.212;5.660;2023-06-22T14:05:46;1.60;;;1.20;;
52494;SDS011;38405;53.212;5.660;2023-06-22T14:08:12;1.00;;;1.00;;
52494;SDS011;38405;53.212;5.660;2023-06-22T14:10:37;2.00;;;1.10;;
52494;SDS011;38405;53.212;5.660;2023-06-22T14:13:03;1.65;;;1.10;;
52494;SDS011;38405;53.212;5.660;2023-06-22T14:15:31;3.47;;;1.50;;
52494;SDS011;38405;53.212;5.660;2023-06-22T14:17:57;1.45;;;1.15;;
52494;SDS011;38405;53.212;5.660;2023-06-22T14:20:22;2.58;;;1.30;;
52494;SDS011;38405;53.212;5.660;2023-06-22T14:22:48;1.10;;;1.00;;
52494;SDS011;38405;53.212;5.660;2023-06-22T14:25:14;1.60;;;1.00;;
52494;SDS011;38405;53.212;5.660;2023-06-22T14:27:39;1.52;;;1.20;;
52494;SDS011;38405;53.212;5.660;2023-06-22T14:30:05;2.13;;;1.30;;
52494;SDS011;38405;53.212;5.660;2023-06-22T14:32:31;1.50;;;1.38;;
52494;SDS011;38405;53.212;5.660;2023-06-22T14:34:57;2.97;;;1.40;;